createdAt,value
2023-05-18T00:01:19.724Z,7.40
2023-05-18T00:03:48.105Z,7.50
2023-05-18T00:06:16.454Z,9.20
2023-05-18T00:08:44.700Z,7.90
2023-05-18T00:11:12.880Z,10.60
2023-05-18T00:13:41.094Z,8.30
2023-05-18T00:16:09.670Z,6.80
2023-05-18T00:18:38.240Z,9.70
2023-05-18T00:21:06.611Z,8.80
2023-05-18T00:23:35.750Z,9.50
2023-05-18T00:26:04.037Z,8.70
2023-05-18T00:28:32.197Z,10.30
2023-05-18T00:31:00.755Z,9.30
2023-05-18T00:33:29.530Z,7.50
2023-05-18T00:35:58.060Z,7.00
2023-05-18T00:38:26.499Z,8.40
2023-05-18T00:40:54.724Z,8.90
2023-05-18T00:43:22.957Z,8.50
2023-05-18T00:45:51.465Z,8.10
2023-05-18T00:48:19.847Z,4.90
2023-05-18T00:50:48.124Z,9.20
2023-05-18T00:53:16.414Z,6.60
2023-05-18T00:55:44.553Z,7.20
2023-05-18T00:58:12.852Z,7.40
2023-05-18T01:00:41.228Z,8.30
2023-05-18T01:03:11.293Z,11.10
2023-05-18T01:05:39.683Z,9.60
2023-05-18T01:08:08.767Z,7.30
2023-05-18T01:10:41.921Z,9.50
2023-05-18T01:13:20.174Z,11.10
2023-05-18T01:15:54.901Z,8.50
2023-05-18T01:18:31.881Z,7.80
2023-05-18T01:21:13.671Z,9.60
2023-05-18T01:23:55.828Z,8.90
2023-05-18T01:26:30.234Z,8.40
2023-05-18T01:29:02.794Z,8.60
2023-05-18T01:31:31.532Z,11.30
2023-05-18T01:33:59.957Z,7.20
2023-05-18T01:36:28.188Z,9.50
2023-05-18T01:39:01.562Z,9.00
2023-05-18T01:41:33.965Z,7.30
2023-05-18T01:44:33.170Z,12.10
2023-05-18T01:47:12.243Z,11.70
2023-05-18T01:49:46.144Z,9.00
2023-05-18T01:52:20.565Z,7.50
2023-05-18T01:54:57.787Z,9.20
2023-05-18T01:57:29.853Z,6.00
2023-05-18T02:00:00.335Z,8.30
2023-05-18T02:02:29.263Z,7.10
2023-05-18T02:04:57.549Z,10.60
2023-05-18T02:07:25.945Z,8.70
2023-05-18T02:09:54.618Z,10.10
2023-05-18T02:12:23.633Z,10.10
2023-05-18T02:14:51.869Z,7.90
2023-05-18T02:17:20.089Z,11.00
2023-05-18T02:19:48.276Z,10.00
2023-05-18T02:22:17.122Z,9.10
2023-05-18T02:24:46.437Z,9.50
2023-05-18T02:27:16.555Z,7.00
2023-05-18T02:29:45.026Z,8.30
2023-05-18T02:32:13.610Z,8.00
2023-05-18T02:34:42.476Z,6.10
2023-05-18T02:37:10.698Z,9.00
2023-05-18T02:39:39.098Z,6.30
2023-05-18T02:42:07.738Z,6.80
2023-05-18T02:44:35.888Z,14.40
2023-05-18T02:47:04.287Z,7.20
2023-05-18T02:49:33.560Z,9.90
2023-05-18T02:52:01.758Z,8.70
2023-05-18T02:54:29.968Z,7.30
2023-05-18T02:56:59.008Z,7.20
2023-05-18T02:59:39.070Z,7.50
2023-05-18T03:02:07.367Z,7.00
2023-05-18T03:04:35.575Z,8.40
2023-05-18T03:07:04.190Z,10.80
2023-05-18T03:09:32.373Z,7.70
2023-05-18T03:12:01.368Z,8.90
2023-05-18T03:14:29.974Z,6.60
2023-05-18T03:16:59.127Z,9.60
2023-05-18T03:19:28.169Z,5.70
2023-05-18T03:21:58.038Z,6.70
2023-05-18T03:24:30.545Z,7.00
2023-05-18T03:27:01.125Z,6.90
2023-05-18T03:29:31.400Z,9.60
2023-05-18T03:32:00.467Z,7.90
2023-05-18T03:34:28.754Z,7.70
2023-05-18T03:36:58.275Z,9.30
2023-05-18T03:39:26.505Z,7.00
2023-05-18T03:41:54.759Z,6.80
2023-05-18T03:44:23.011Z,8.30
2023-05-18T03:46:51.417Z,8.60
2023-05-18T03:49:19.967Z,9.60
2023-05-18T03:51:48.265Z,7.80
2023-05-18T03:54:16.651Z,7.30
2023-05-18T03:56:44.837Z,5.40
2023-05-18T03:59:13.514Z,9.10
2023-05-18T04:01:42.505Z,6.00
2023-05-18T04:04:18.460Z,6.50
2023-05-18T04:06:47.207Z,8.00
2023-05-18T04:09:17.525Z,9.30
2023-05-18T04:11:46.194Z,9.00
2023-05-18T04:14:15.246Z,9.30
2023-05-18T04:16:43.649Z,8.20
2023-05-18T04:19:11.908Z,7.80
2023-05-18T04:21:43.722Z,9.40
2023-05-18T04:24:14.585Z,8.60
2023-05-18T04:26:43.394Z,6.50
2023-05-18T04:29:13.624Z,7.20
2023-05-18T04:31:42.858Z,5.90
2023-05-18T04:34:13.364Z,8.70
2023-05-18T04:36:44.036Z,8.40
2023-05-18T04:39:12.655Z,9.80
2023-05-18T04:41:42.403Z,12.90
2023-05-18T04:44:10.735Z,8.70
2023-05-18T04:46:40.904Z,9.50
2023-05-18T04:49:10.331Z,11.30
2023-05-18T04:51:38.500Z,10.90
2023-05-18T04:54:06.767Z,14.80
2023-05-18T04:56:35.380Z,14.10
2023-05-18T04:59:04.316Z,10.70
2023-05-18T05:01:32.554Z,12.70
2023-05-18T05:04:00.908Z,11.50
2023-05-18T05:06:29.135Z,11.80
2023-05-18T05:08:57.347Z,15.30
2023-05-18T05:11:25.465Z,9.10
2023-05-18T05:13:53.661Z,10.20
2023-05-18T05:16:21.905Z,9.90
2023-05-18T05:18:50.098Z,10.70
2023-05-18T05:21:18.597Z,15.40
2023-05-18T05:23:47.784Z,12.30
2023-05-18T05:26:16.211Z,7.30
2023-05-18T05:28:44.562Z,9.80
2023-05-18T05:31:12.906Z,7.90
2023-05-18T05:33:41.785Z,7.80
2023-05-18T05:36:09.973Z,13.90
2023-05-18T05:38:38.212Z,9.60
2023-05-18T05:41:06.844Z,6.30
2023-05-18T05:43:35.574Z,7.00
2023-05-18T05:46:03.871Z,8.00
2023-05-18T05:48:32.160Z,10.80
2023-05-18T05:51:00.376Z,8.30
2023-05-18T05:53:29.874Z,8.00
2023-05-18T05:55:58.258Z,6.80
2023-05-18T05:58:26.713Z,7.20
2023-05-18T06:00:58.924Z,8.50
2023-05-18T06:03:27.299Z,6.90
2023-05-18T06:05:57.496Z,6.20
2023-05-18T06:08:25.912Z,5.80
2023-05-18T06:10:55.734Z,5.90
2023-05-18T06:13:24.918Z,5.00
2023-05-18T06:15:55.692Z,5.90
2023-05-18T06:18:25.046Z,7.10
2023-05-18T06:20:56.948Z,6.90
2023-05-18T06:23:25.257Z,4.70
2023-05-18T06:26:02.642Z,7.70
2023-05-18T06:28:51.253Z,5.40
2023-05-18T06:31:40.503Z,5.10
2023-05-18T06:34:12.075Z,6.00
2023-05-18T06:36:40.712Z,6.60
2023-05-18T06:39:09.344Z,2.80
2023-05-18T06:41:37.542Z,4.30
2023-05-18T06:44:07.068Z,3.50
2023-05-18T06:46:37.775Z,4.90
2023-05-18T06:49:19.486Z,2.90
2023-05-18T06:51:47.697Z,2.50
2023-05-18T06:54:16.494Z,8.30
2023-05-18T06:56:44.742Z,3.10
2023-05-18T06:59:13.161Z,3.60
2023-05-18T07:01:41.720Z,4.50
2023-05-18T07:04:10.120Z,3.60
2023-05-18T07:06:38.597Z,4.40
2023-05-18T07:09:08.390Z,3.70
2023-05-18T07:11:36.609Z,3.80
2023-05-18T07:14:04.702Z,5.80
2023-05-18T07:16:32.971Z,3.70
2023-05-18T07:19:01.288Z,2.60
2023-05-18T07:21:29.520Z,3.90
2023-05-18T07:23:57.709Z,3.00
2023-05-18T07:26:26.339Z,3.80
2023-05-18T07:28:54.504Z,4.40
2023-05-18T07:31:22.801Z,8.80
2023-05-18T07:33:51.029Z,3.50
2023-05-18T07:36:19.202Z,4.70
2023-05-18T07:38:47.601Z,4.10
2023-05-18T07:41:15.741Z,2.60
2023-05-18T07:43:43.879Z,2.40
2023-05-18T07:46:12.041Z,5.40
2023-05-18T07:48:41.196Z,2.70
2023-05-18T07:51:09.599Z,3.00
2023-05-18T07:53:38.364Z,5.50
2023-05-18T07:56:07.680Z,2.30
2023-05-18T07:58:36.487Z,4.40
2023-05-18T08:01:04.954Z,3.20
2023-05-18T08:03:33.291Z,2.20
2023-05-18T08:06:01.716Z,3.30
2023-05-18T08:08:30.038Z,2.30
2023-05-18T08:10:59.854Z,3.00
2023-05-18T08:13:28.646Z,1.50
2023-05-18T08:16:10.595Z,3.80
2023-05-18T08:18:40.593Z,2.10
2023-05-18T08:21:10.177Z,2.80
2023-05-18T08:23:40.370Z,4.30
2023-05-18T08:26:09.832Z,1.70
2023-05-18T08:28:39.658Z,2.20
2023-05-18T08:31:08.060Z,1.70
2023-05-18T08:33:36.227Z,3.60
2023-05-18T08:36:04.873Z,3.10
2023-05-18T08:38:33.410Z,2.00
2023-05-18T08:41:08.585Z,2.80
2023-05-18T08:43:42.226Z,3.30
2023-05-18T08:48:59.008Z,1.20
2023-05-18T08:51:33.628Z,2.50
2023-05-18T08:54:03.558Z,2.60
2023-05-18T08:56:33.759Z,3.20
2023-05-18T08:59:08.185Z,5.00
2023-05-18T09:01:37.554Z,4.30
2023-05-18T09:04:06.542Z,3.90
2023-05-18T09:06:36.140Z,3.40
2023-05-18T09:09:05.025Z,3.80
2023-05-18T09:11:35.562Z,2.60
2023-05-18T09:14:03.875Z,3.50
2023-05-18T09:16:33.276Z,3.30
2023-05-18T09:19:01.959Z,2.60
2023-05-18T09:21:32.735Z,6.40
2023-05-18T09:24:01.563Z,2.60
2023-05-18T09:26:30.228Z,5.70
2023-05-18T09:28:59.650Z,2.50
2023-05-18T09:31:30.883Z,5.20
2023-05-18T09:33:59.466Z,7.70
2023-05-18T09:36:29.727Z,4.50
2023-05-18T09:38:58.736Z,1.20
2023-05-18T09:41:28.336Z,3.70
2023-05-18T09:43:56.593Z,1.40
2023-05-18T09:46:24.943Z,3.40
2023-05-18T09:48:55.317Z,2.90
2023-05-18T09:51:25.678Z,2.30
2023-05-18T09:53:56.636Z,1.40
2023-05-18T09:56:27.077Z,0.70
2023-05-18T09:58:55.569Z,2.30
2023-05-18T10:01:23.955Z,1.00
2023-05-18T10:03:53.434Z,3.60
2023-05-18T10:06:27.484Z,1.80
2023-05-18T10:08:57.685Z,1.00
2023-05-18T10:11:27.778Z,2.40
2023-05-18T10:13:58.689Z,2.20
2023-05-18T10:16:26.978Z,1.50
2023-05-18T10:18:56.220Z,2.20
2023-05-18T10:21:30.232Z,1.70
2023-05-18T10:24:01.461Z,0.80
2023-05-18T10:26:31.530Z,1.40
2023-05-18T10:29:00.223Z,1.30
2023-05-18T10:31:30.925Z,1.20
2023-05-18T10:34:00.299Z,1.50
2023-05-18T10:36:32.222Z,0.90
2023-05-18T10:39:02.798Z,1.40
2023-05-18T10:41:32.777Z,0.90
2023-05-18T10:44:04.288Z,1.20
2023-05-18T10:46:35.077Z,0.60
2023-05-18T10:49:05.848Z,0.90
2023-05-18T10:51:35.810Z,0.80
2023-05-18T10:54:14.936Z,1.50
2023-05-18T10:56:49.390Z,0.90
2023-05-18T10:59:18.974Z,0.80
2023-05-18T11:01:49.937Z,0.90
2023-05-18T11:04:32.580Z,2.30
2023-05-18T11:07:02.359Z,2.70
2023-05-18T11:09:31.159Z,0.90
2023-05-18T11:12:00.752Z,3.00
2023-05-18T11:14:30.803Z,1.60
2023-05-18T11:17:19.314Z,1.00
2023-05-18T11:20:05.987Z,2.70
2023-05-18T11:22:53.707Z,2.00
2023-05-18T11:25:24.739Z,2.90
2023-05-18T11:27:54.162Z,1.30
2023-05-18T11:30:30.748Z,4.10
2023-05-18T11:33:26.243Z,4.30
2023-05-18T11:36:11.965Z,0.60
2023-05-18T11:39:07.135Z,1.00
2023-05-18T11:41:43.326Z,2.90
2023-05-18T11:44:25.119Z,2.30
2023-05-18T11:46:54.447Z,2.10
2023-05-18T11:49:25.257Z,1.30
2023-05-18T11:51:58.909Z,1.60
2023-05-18T11:54:28.242Z,2.00
2023-05-18T11:56:56.504Z,2.90
2023-05-18T11:59:33.173Z,5.80
2023-05-18T12:02:03.219Z,2.20
2023-05-18T12:04:33.722Z,1.70
2023-05-18T12:07:05.918Z,2.60
2023-05-18T12:09:34.481Z,2.10
2023-05-18T12:12:03.129Z,4.30
2023-05-18T12:14:32.562Z,1.20
2023-05-18T12:17:02.286Z,1.50
2023-05-18T12:19:30.712Z,3.20
2023-05-18T12:21:59.285Z,0.80
2023-05-18T12:24:27.578Z,2.70
2023-05-18T12:26:56.442Z,1.90
2023-05-18T12:29:24.836Z,0.90
2023-05-18T12:31:53.035Z,3.10
2023-05-18T12:34:21.279Z,2.30
2023-05-18T12:36:56.867Z,2.20
2023-05-18T12:39:28.589Z,0.70
2023-05-18T12:42:15.440Z,1.80
2023-05-18T12:44:45.446Z,2.50
2023-05-18T12:47:14.884Z,1.30
2023-05-18T12:49:48.759Z,1.20
2023-05-18T12:52:17.415Z,1.50
2023-05-18T12:54:58.721Z,1.70
2023-05-18T12:57:27.873Z,1.20
2023-05-18T12:59:59.206Z,3.20
2023-05-18T13:02:33.339Z,2.50
2023-05-18T13:05:12.035Z,1.30
2023-05-18T13:07:44.703Z,1.60
2023-05-18T13:10:16.707Z,3.50
2023-05-18T13:12:46.416Z,2.90
2023-05-18T13:15:18.865Z,2.80
2023-05-18T13:17:58.428Z,0.70
2023-05-18T13:20:36.682Z,2.40
2023-05-18T13:23:09.149Z,0.90
2023-05-18T13:25:38.354Z,1.10
2023-05-18T13:28:07.304Z,3.00
2023-05-18T13:30:35.657Z,2.00
2023-05-18T13:33:04.209Z,1.70
2023-05-18T13:35:32.717Z,1.90
2023-05-18T13:38:01.347Z,1.10
2023-05-18T13:40:29.671Z,2.70
2023-05-18T13:42:57.841Z,1.30
2023-05-18T13:45:26.328Z,0.70
2023-05-18T13:47:54.701Z,1.20
2023-05-18T13:50:24.125Z,2.10
2023-05-18T13:52:53.142Z,2.40
2023-05-18T13:55:21.701Z,2.90
2023-05-18T13:57:49.999Z,1.20
2023-05-18T14:00:20.711Z,1.60
2023-05-18T14:02:49.203Z,1.10
2023-05-18T14:05:17.845Z,1.10
2023-05-18T14:07:46.252Z,4.00
2023-05-18T14:10:14.560Z,4.50
2023-05-18T14:12:42.833Z,2.10
2023-05-18T14:15:13.992Z,1.90
2023-05-18T14:17:43.094Z,1.60
2023-05-18T14:20:12.757Z,0.60
2023-05-18T14:22:41.339Z,2.00
2023-05-18T14:25:09.941Z,2.70
2023-05-18T14:27:38.102Z,1.90
2023-05-18T14:30:07.047Z,2.40
2023-05-18T14:32:35.304Z,0.90
2023-05-18T14:35:03.847Z,1.10
2023-05-18T14:37:33.103Z,3.70
2023-05-18T14:40:01.847Z,1.60
2023-05-18T14:42:30.013Z,2.10
2023-05-18T14:44:58.135Z,2.80
2023-05-18T14:47:26.469Z,1.70
2023-05-18T14:49:54.619Z,2.20
2023-05-18T14:52:22.795Z,1.20
2023-05-18T14:54:51.128Z,1.20
2023-05-18T14:57:19.344Z,1.60
2023-05-18T14:59:47.619Z,1.00
2023-05-18T15:02:16.277Z,2.40
2023-05-18T15:04:44.450Z,3.00
2023-05-18T15:07:12.612Z,3.20
2023-05-18T15:09:40.837Z,3.30
2023-05-18T15:12:09.046Z,1.70
2023-05-18T15:14:38.231Z,2.40
2023-05-18T15:17:07.544Z,3.20
2023-05-18T15:19:36.283Z,6.40
2023-05-18T15:22:04.737Z,1.10
2023-05-18T15:24:32.914Z,1.60
2023-05-18T15:27:03.639Z,2.00
2023-05-18T15:29:31.804Z,5.20
2023-05-18T15:31:59.985Z,3.50
2023-05-18T15:34:28.241Z,1.90
2023-05-18T15:36:56.342Z,2.30
2023-05-18T15:39:24.547Z,1.70
2023-05-18T15:41:52.979Z,1.40
2023-05-18T15:44:21.113Z,3.70
2023-05-18T15:46:49.499Z,4.60
2023-05-18T15:49:18.806Z,2.60
2023-05-18T15:51:47.101Z,1.40
2023-05-18T15:54:15.254Z,0.90
2023-05-18T15:56:43.722Z,2.50
2023-05-18T15:59:11.841Z,2.10
2023-05-18T16:01:40.066Z,2.50
2023-05-18T16:04:08.406Z,2.10
2023-05-18T16:06:36.688Z,2.00
2023-05-18T16:09:04.839Z,2.60
2023-05-18T16:11:35.682Z,3.50
2023-05-18T16:14:04.961Z,2.60
2023-05-18T16:16:33.143Z,3.00
2023-05-18T16:19:02.490Z,1.80
2023-05-18T16:21:31.852Z,1.50
2023-05-18T16:24:00.244Z,2.30
2023-05-18T16:26:28.564Z,1.60
2023-05-18T16:28:56.847Z,2.10
2023-05-18T16:31:25.035Z,3.40
2023-05-18T16:33:53.313Z,2.10
2023-05-18T16:36:21.656Z,3.60
2023-05-18T16:38:50.396Z,3.40
2023-05-18T16:41:18.824Z,3.50
2023-05-18T16:43:47.258Z,4.80
2023-05-18T16:46:16.795Z,3.60
2023-05-18T16:48:45.529Z,4.10
2023-05-18T16:51:13.796Z,5.10
2023-05-18T16:53:42.854Z,2.50
2023-05-18T16:56:11.010Z,3.70
2023-05-18T16:58:39.123Z,1.80
2023-05-18T17:01:19.395Z,2.20
2023-05-18T17:03:54.714Z,3.90
2023-05-18T17:06:22.975Z,2.50
2023-05-18T17:08:57.926Z,2.60
2023-05-18T17:11:27.818Z,3.90
2023-05-18T17:13:57.878Z,2.10
2023-05-18T17:16:27.366Z,2.10
2023-05-18T17:18:56.316Z,3.70
2023-05-18T17:21:24.972Z,2.30
2023-05-18T17:23:53.186Z,0.90
2023-05-18T17:26:22.408Z,2.80
2023-05-18T17:28:50.905Z,1.70
2023-05-18T17:31:19.177Z,2.50
2023-05-18T17:33:47.511Z,1.20
2023-05-18T17:36:18.843Z,2.30
2023-05-18T17:38:47.557Z,2.70
2023-05-18T17:41:15.778Z,2.00
2023-05-18T17:43:43.968Z,2.90
2023-05-18T17:46:12.084Z,2.00
2023-05-18T17:48:40.242Z,2.60
2023-05-18T17:51:08.583Z,2.60
2023-05-18T17:53:42.412Z,4.50
2023-05-18T17:56:11.149Z,6.20
2023-05-18T17:58:39.910Z,2.10
2023-05-18T18:01:09.032Z,3.20
2023-05-18T18:03:37.762Z,3.30
2023-05-18T18:06:06.704Z,2.00
2023-05-18T18:08:35.043Z,4.40
2023-05-18T18:11:04.358Z,8.10
2023-05-18T18:13:33.593Z,6.10
2023-05-18T18:16:01.841Z,3.30
2023-05-18T18:18:30.549Z,2.00
2023-05-18T18:20:58.719Z,2.00
2023-05-18T18:23:26.843Z,2.00
2023-05-18T18:25:55.300Z,1.20
2023-05-18T18:28:23.386Z,1.70
2023-05-18T18:30:51.748Z,1.90
2023-05-18T18:33:21.052Z,3.10
2023-05-18T18:35:49.147Z,3.10
2023-05-18T18:38:17.292Z,2.10
2023-05-18T18:40:45.568Z,1.70
2023-05-18T18:43:13.768Z,1.60
2023-05-18T18:45:42.137Z,1.20
2023-05-18T18:48:10.328Z,2.30
2023-05-18T18:50:38.461Z,4.00
2023-05-18T18:53:06.642Z,3.70
2023-05-18T18:55:34.755Z,1.90
2023-05-18T18:58:03.074Z,2.10
2023-05-18T19:00:31.445Z,2.00
2023-05-18T19:02:59.701Z,1.90
2023-05-18T19:05:28.538Z,2.80
2023-05-18T19:07:56.783Z,2.40
2023-05-18T19:10:25.559Z,3.90
2023-05-18T19:12:53.780Z,2.70
2023-05-18T19:15:22.262Z,3.80
2023-05-18T19:17:54.039Z,4.80
2023-05-18T19:20:23.211Z,2.20
2023-05-18T19:22:53.616Z,2.40
2023-05-18T19:25:24.484Z,2.40
2023-05-18T19:27:54.193Z,1.90
2023-05-18T19:30:23.534Z,1.70
2023-05-18T19:32:53.197Z,1.20
2023-05-18T19:35:23.776Z,1.80
2023-05-18T19:37:52.474Z,3.60
2023-05-18T19:40:25.065Z,2.70
2023-05-18T19:42:53.291Z,2.00
2023-05-18T19:45:21.570Z,3.60
2023-05-18T19:47:49.889Z,2.80
2023-05-18T19:50:18.430Z,1.80
2023-05-18T19:52:46.903Z,2.00
2023-05-18T19:55:15.043Z,1.80
2023-05-18T19:57:43.357Z,2.30
2023-05-18T20:00:11.985Z,2.10
2023-05-18T20:02:42.883Z,1.70
2023-05-18T20:05:12.991Z,1.50
2023-05-18T20:07:41.995Z,1.70
2023-05-18T20:10:10.128Z,2.90
2023-05-18T20:12:38.241Z,1.20
2023-05-18T20:15:07.710Z,0.70
2023-05-18T20:17:37.401Z,1.80
2023-05-18T20:20:06.309Z,3.00
2023-05-18T20:22:34.570Z,3.90
2023-05-18T20:25:05.667Z,1.20
2023-05-18T20:27:34.168Z,3.10
2023-05-18T20:30:02.325Z,4.60
2023-05-18T20:32:32.799Z,1.10
2023-05-18T20:35:01.125Z,1.90
2023-05-18T20:37:29.418Z,2.40
2023-05-18T20:39:58.239Z,4.10
2023-05-18T20:42:40.951Z,1.30
2023-05-18T20:45:09.772Z,2.90
2023-05-18T20:47:37.963Z,2.40
2023-05-18T20:50:06.799Z,1.40
2023-05-18T20:52:35.427Z,1.50
2023-05-18T20:55:03.685Z,2.50
2023-05-18T20:57:31.849Z,2.20
2023-05-18T20:59:59.982Z,2.80
2023-05-18T21:02:28.128Z,1.60
2023-05-18T21:04:57.941Z,3.50
2023-05-18T21:07:26.516Z,3.00
2023-05-18T21:09:54.749Z,3.20
2023-05-18T21:12:22.945Z,2.00
2023-05-18T21:14:51.235Z,2.30
2023-05-18T21:17:20.502Z,3.60
2023-05-18T21:19:49.863Z,1.40
2023-05-18T21:22:18.053Z,2.20
2023-05-18T21:24:46.223Z,3.60
2023-05-18T21:27:14.350Z,2.80
2023-05-18T21:29:42.499Z,1.70
2023-05-18T21:32:10.881Z,1.60
2023-05-18T21:34:41.126Z,1.60
2023-05-18T21:37:11.003Z,1.80
2023-05-18T21:39:42.160Z,1.60
2023-05-18T21:42:10.609Z,1.60
2023-05-18T21:44:38.753Z,1.50
2023-05-18T21:47:07.582Z,2.40
2023-05-18T21:49:35.780Z,1.90
2023-05-18T21:52:04.016Z,1.70
2023-05-18T21:54:33.632Z,1.40
2023-05-18T21:57:02.338Z,1.20
2023-05-18T21:59:30.506Z,0.90
2023-05-18T22:01:58.815Z,2.00
2023-05-18T22:04:27.665Z,2.20
2023-05-18T22:06:56.332Z,1.30
2023-05-18T22:09:24.826Z,1.50
2023-05-18T22:11:52.937Z,1.00
2023-05-18T22:14:21.446Z,1.00
2023-05-18T22:16:49.682Z,1.20
2023-05-18T22:19:17.891Z,4.50
2023-05-18T22:21:46.090Z,2.00
2023-05-18T22:24:14.187Z,2.10
2023-05-18T22:26:43.463Z,2.90
2023-05-18T22:29:11.784Z,1.70
2023-05-18T22:31:40.103Z,1.40
2023-05-18T22:34:08.368Z,1.00
2023-05-18T22:36:36.958Z,1.60
2023-05-18T22:39:05.160Z,2.60
2023-05-18T22:41:33.397Z,2.00
2023-05-18T22:44:01.752Z,3.50
2023-05-18T22:46:30.511Z,2.70
2023-05-18T22:48:59.274Z,1.70
2023-05-18T22:51:28.395Z,1.30
2023-05-18T22:53:56.878Z,1.90
2023-05-18T22:56:25.519Z,1.50
2023-05-18T22:58:54.147Z,1.30
2023-05-18T23:01:22.377Z,1.00
2023-05-18T23:03:50.647Z,0.80
2023-05-18T23:06:22.825Z,1.20
2023-05-18T23:08:51.021Z,1.50
2023-05-18T23:11:19.987Z,1.60
2023-05-18T23:13:48.556Z,1.50
2023-05-18T23:16:16.834Z,0.90
2023-05-18T23:18:46.332Z,1.50
2023-05-18T23:21:14.750Z,1.40
2023-05-18T23:23:45.643Z,0.80
2023-05-18T23:26:13.982Z,1.40
2023-05-18T23:28:42.118Z,1.50
2023-05-18T23:31:10.269Z,1.80
2023-05-18T23:33:38.691Z,3.80
2023-05-18T23:36:08.310Z,3.20
2023-05-18T23:38:38.009Z,2.50
2023-05-18T23:41:07.622Z,4.70
2023-05-18T23:43:36.214Z,4.00
2023-05-18T23:46:05.201Z,3.10
2023-05-18T23:48:33.885Z,2.80
2023-05-18T23:51:02.859Z,1.90
2023-05-18T23:53:31.418Z,4.30
2023-05-18T23:56:00.223Z,2.20
2023-05-18T23:58:30.998Z,2.60
